createdAt,value
2023-03-06T00:00:51.008Z,2.23
2023-03-06T00:03:19.018Z,2.29
2023-03-06T00:05:46.491Z,2.26
2023-03-06T00:08:13.940Z,2.36
2023-03-06T00:10:41.507Z,2.31
2023-03-06T00:13:13.714Z,2.24
2023-03-06T00:15:41.167Z,2.34
2023-03-06T00:18:08.855Z,2.47
2023-03-06T00:20:37.248Z,2.37
2023-03-06T00:23:05.153Z,2.56
2023-03-06T00:25:32.519Z,2.60
2023-03-06T00:27:59.908Z,2.60
2023-03-06T00:30:27.350Z,2.67
2023-03-06T00:32:55.018Z,2.73
2023-03-06T00:35:23.994Z,2.98
2023-03-06T00:37:51.455Z,3.08
2023-03-06T00:40:19.731Z,3.18
2023-03-06T00:42:47.900Z,3.12
2023-03-06T00:45:15.317Z,3.32
2023-03-06T00:47:43.302Z,3.44
2023-03-06T00:50:11.278Z,3.46
2023-03-06T00:52:39.085Z,3.47
2023-03-06T00:55:07.064Z,3.53
2023-03-06T00:57:34.337Z,3.41
2023-03-06T01:00:02.099Z,3.42
2023-03-06T01:02:30.735Z,3.43
2023-03-06T01:04:58.775Z,3.32
2023-03-06T01:07:27.999Z,3.37
2023-03-06T01:09:55.251Z,3.34
2023-03-06T01:12:23.574Z,3.17
2023-03-06T01:14:51.915Z,3.32
2023-03-06T01:17:19.229Z,3.56
2023-03-06T01:19:46.534Z,3.70
2023-03-06T01:22:14.459Z,3.78
2023-03-06T01:24:41.808Z,3.73
2023-03-06T01:27:09.240Z,3.46
2023-03-06T01:29:36.711Z,3.45
2023-03-06T01:32:04.202Z,3.52
2023-03-06T01:34:31.717Z,3.63
2023-03-06T01:36:59.074Z,3.58
2023-03-06T01:39:26.500Z,3.49
2023-03-06T01:41:53.852Z,3.26
2023-03-06T01:44:21.217Z,2.96
2023-03-06T01:46:48.693Z,2.87
2023-03-06T01:49:18.988Z,2.75
2023-03-06T01:51:53.196Z,2.70
2023-03-06T01:54:34.437Z,2.80
2023-03-06T01:57:12.032Z,3.12
2023-03-06T01:59:41.012Z,3.33
2023-03-06T02:02:11.158Z,3.49
2023-03-06T02:04:40.346Z,3.26
2023-03-06T02:07:08.695Z,3.12
2023-03-06T02:09:38.009Z,2.82
2023-03-06T02:12:11.608Z,2.64
2023-03-06T02:14:40.633Z,2.58
2023-03-06T02:17:10.914Z,2.73
2023-03-06T02:19:59.162Z,2.86
2023-03-06T02:22:36.437Z,2.79
2023-03-06T02:25:29.981Z,2.83
2023-03-06T02:27:57.814Z,2.85
2023-03-06T02:30:28.351Z,3.00
2023-03-06T02:32:56.060Z,3.15
2023-03-06T02:35:28.819Z,3.11
2023-03-06T02:38:00.100Z,2.96
2023-03-06T02:40:27.971Z,3.02
2023-03-06T02:42:57.577Z,3.02
2023-03-06T02:45:35.947Z,3.15
2023-03-06T02:48:04.190Z,3.16
2023-03-06T02:50:32.821Z,3.24
2023-03-06T02:53:01.820Z,3.13
2023-03-06T02:55:31.442Z,2.89
2023-03-06T02:57:59.255Z,2.86
2023-03-06T03:00:27.476Z,2.73
2023-03-06T03:02:55.016Z,2.74
2023-03-06T03:05:22.857Z,2.73
2023-03-06T03:07:57.792Z,2.78
2023-03-06T03:10:25.671Z,2.65
2023-03-06T03:12:53.074Z,2.76
2023-03-06T03:15:21.201Z,2.74
2023-03-06T03:17:48.622Z,2.71
2023-03-06T03:20:21.677Z,2.73
2023-03-06T03:22:56.450Z,2.69
2023-03-06T03:25:25.696Z,2.63
2023-03-06T03:27:56.036Z,2.49
2023-03-06T03:30:24.000Z,2.47
2023-03-06T03:32:51.422Z,2.54
2023-03-06T03:35:19.882Z,2.26
2023-03-06T03:37:47.989Z,2.28
2023-03-06T03:40:15.541Z,2.30
2023-03-06T03:42:43.526Z,2.28
2023-03-06T03:45:11.804Z,2.22
2023-03-06T03:47:40.848Z,2.26
2023-03-06T03:50:09.411Z,2.27
2023-03-06T03:52:37.962Z,2.22
2023-03-06T03:55:06.158Z,2.15
2023-03-06T03:57:33.706Z,2.16
2023-03-06T04:00:01.783Z,2.20
2023-03-06T04:02:47.414Z,2.00
2023-03-06T04:05:25.809Z,1.93
2023-03-06T04:07:54.091Z,1.94
2023-03-06T04:10:21.915Z,1.93
2023-03-06T04:12:50.192Z,2.01
2023-03-06T04:15:18.058Z,2.10
2023-03-06T04:17:47.339Z,2.11
2023-03-06T04:20:19.462Z,2.23
2023-03-06T04:22:48.003Z,2.26
2023-03-06T04:25:16.852Z,2.36
2023-03-06T04:27:44.546Z,2.33
2023-03-06T04:30:12.393Z,2.38
2023-03-06T04:32:41.819Z,2.32
2023-03-06T04:35:10.377Z,2.19
2023-03-06T04:37:46.015Z,2.16
2023-03-06T04:40:23.771Z,2.37
2023-03-06T04:42:51.282Z,2.31
2023-03-06T04:45:18.971Z,2.34
2023-03-06T04:47:47.218Z,2.33
2023-03-06T04:50:20.000Z,2.28
2023-03-06T04:52:47.905Z,2.47
2023-03-06T04:55:17.354Z,2.34
2023-03-06T04:57:48.004Z,2.49
2023-03-06T05:00:25.254Z,2.66
2023-03-06T05:03:05.759Z,2.60
2023-03-06T05:05:37.964Z,2.66
2023-03-06T05:08:07.076Z,2.74
2023-03-06T05:10:36.081Z,2.86
2023-03-06T05:13:04.241Z,2.69
2023-03-06T05:15:32.531Z,2.74
2023-03-06T05:19:18.415Z,2.66
2023-03-06T05:21:58.119Z,2.58
2023-03-06T05:24:33.816Z,2.57
2023-03-06T05:27:13.071Z,2.71
2023-03-06T05:29:42.597Z,2.87
2023-03-06T05:32:10.906Z,3.05
2023-03-06T05:34:40.886Z,3.09
2023-03-06T05:37:11.377Z,3.06
2023-03-06T05:39:41.788Z,3.25
2023-03-06T05:42:10.630Z,3.26
2023-03-06T05:44:39.823Z,3.17
2023-03-06T05:47:30.550Z,3.38
2023-03-06T05:50:20.513Z,3.54
2023-03-06T05:53:09.535Z,3.41
2023-03-06T05:55:43.991Z,3.42
2023-03-06T05:58:15.173Z,3.49
2023-03-06T06:01:14.554Z,3.67
2023-03-06T06:03:45.738Z,3.68
2023-03-06T06:07:11.287Z,3.90
2023-03-06T06:09:54.691Z,4.00
2023-03-06T06:12:26.883Z,4.21
2023-03-06T06:14:56.014Z,4.35
2023-03-06T06:17:24.082Z,4.50
2023-03-06T06:19:57.449Z,4.52
2023-03-06T06:22:25.899Z,4.64
2023-03-06T06:24:57.390Z,4.60
2023-03-06T06:27:26.073Z,4.81
2023-03-06T06:29:57.855Z,4.74
2023-03-06T06:32:28.315Z,4.60
2023-03-06T06:35:14.324Z,4.72
2023-03-06T06:37:45.993Z,4.79
2023-03-06T06:40:18.096Z,4.67
2023-03-06T06:42:47.586Z,4.79
2023-03-06T06:45:16.867Z,5.01
2023-03-06T06:47:46.785Z,5.03
2023-03-06T06:50:16.041Z,5.23
2023-03-06T06:53:07.604Z,5.43
2023-03-06T06:56:14.269Z,5.40
2023-03-06T06:58:51.409Z,5.25
2023-03-06T07:01:36.353Z,5.29
2023-03-06T07:04:07.323Z,5.46
2023-03-06T07:06:43.334Z,5.59
2023-03-06T07:09:15.929Z,5.72
2023-03-06T07:11:43.752Z,5.74
2023-03-06T07:14:12.595Z,5.71
2023-03-06T07:16:42.214Z,5.88
2023-03-06T07:19:09.922Z,5.89
2023-03-06T07:21:37.768Z,6.01
2023-03-06T07:24:06.686Z,5.99
2023-03-06T07:26:37.809Z,6.11
2023-03-06T07:29:07.469Z,6.08
2023-03-06T07:31:37.621Z,6.07
2023-03-06T07:34:14.506Z,6.29
2023-03-06T07:36:51.630Z,6.29
2023-03-06T07:39:55.479Z,6.54
2023-03-06T07:42:32.996Z,6.48
2023-03-06T07:45:05.599Z,6.82
2023-03-06T07:47:41.828Z,6.65
2023-03-06T07:50:12.153Z,6.67
2023-03-06T07:52:46.715Z,6.71
2023-03-06T07:55:22.167Z,6.52
2023-03-06T07:57:55.704Z,6.61
2023-03-06T08:00:32.272Z,6.80
2023-03-06T08:03:08.947Z,7.27
2023-03-06T08:05:45.176Z,7.61
2023-03-06T08:08:20.471Z,7.85
2023-03-06T08:10:50.644Z,7.84
2023-03-06T08:13:18.993Z,7.54
2023-03-06T08:15:50.015Z,7.84
2023-03-06T08:18:23.402Z,8.14
2023-03-06T08:21:04.002Z,8.35
2023-03-06T08:23:35.955Z,8.45
2023-03-06T08:26:12.303Z,8.40
2023-03-06T08:28:43.464Z,8.34
2023-03-06T08:31:24.163Z,8.46
2023-03-06T08:33:52.974Z,8.38
2023-03-06T08:36:26.002Z,8.36
2023-03-06T08:39:50.642Z,8.34
2023-03-06T08:42:46.165Z,8.21
2023-03-06T08:45:46.958Z,8.54
2023-03-06T08:48:28.571Z,8.51
2023-03-06T08:50:57.141Z,8.47
2023-03-06T08:53:42.243Z,8.39
2023-03-06T08:56:25.955Z,8.35
2023-03-06T08:59:03.712Z,8.17
2023-03-06T09:01:35.477Z,8.03
2023-03-06T09:04:07.381Z,8.10
2023-03-06T09:06:38.899Z,8.34
2023-03-06T09:09:08.183Z,8.05
2023-03-06T09:11:39.837Z,7.60
2023-03-06T09:14:08.463Z,7.67
2023-03-06T09:16:39.219Z,7.54
2023-03-06T09:19:08.601Z,7.47
2023-03-06T09:21:36.717Z,7.55
2023-03-06T09:24:05.228Z,7.52
2023-03-06T09:26:45.373Z,7.68
2023-03-06T09:29:40.522Z,7.86
2023-03-06T09:32:09.625Z,7.72
2023-03-06T09:34:39.826Z,7.68
2023-03-06T09:37:08.858Z,7.65
2023-03-06T09:39:36.886Z,7.84
2023-03-06T09:42:09.674Z,7.66
2023-03-06T09:44:41.746Z,7.76
2023-03-06T09:47:38.408Z,7.64
2023-03-06T09:50:20.389Z,7.83
2023-03-06T09:53:17.771Z,8.02
2023-03-06T09:55:57.501Z,8.14
2023-03-06T09:58:27.882Z,7.97
2023-03-06T10:01:20.039Z,8.11
2023-03-06T10:03:54.130Z,8.08
2023-03-06T10:06:28.698Z,7.91
2023-03-06T10:09:42.018Z,8.02
2023-03-06T10:12:29.347Z,8.01
2023-03-06T10:15:15.084Z,8.16
2023-03-06T10:17:45.202Z,8.11
2023-03-06T10:20:24.255Z,8.08
2023-03-06T10:23:25.409Z,8.19
2023-03-06T10:26:08.314Z,8.11
2023-03-06T10:28:45.334Z,8.03
2023-03-06T10:31:26.787Z,8.13
2023-03-06T10:34:25.961Z,8.16
2023-03-06T10:36:53.936Z,8.16
2023-03-06T10:39:23.596Z,8.17
2023-03-06T10:41:51.539Z,8.16
2023-03-06T10:44:22.176Z,8.13
2023-03-06T10:46:55.144Z,7.93
2023-03-06T10:49:39.362Z,8.04
2023-03-06T10:52:20.832Z,8.12
2023-03-06T10:54:51.489Z,7.91
2023-03-06T10:57:34.780Z,8.19
2023-03-06T11:00:23.914Z,8.20
2023-03-06T11:03:14.581Z,8.09
2023-03-06T11:05:59.774Z,8.32
2023-03-06T11:08:29.243Z,8.35
2023-03-06T11:11:06.399Z,8.17
2023-03-06T11:13:40.412Z,8.20
2023-03-06T11:16:37.931Z,8.28
2023-03-06T11:19:18.523Z,8.36
2023-03-06T11:22:19.024Z,8.10
2023-03-06T11:24:54.762Z,7.74
2023-03-06T11:27:37.042Z,7.84
2023-03-06T11:30:29.407Z,7.79
2023-03-06T11:33:07.084Z,7.52
2023-03-06T11:35:53.574Z,7.56
2023-03-06T11:38:28.120Z,7.45
2023-03-06T11:41:01.790Z,7.40
2023-03-06T11:43:42.392Z,7.40
2023-03-06T11:46:20.449Z,7.45
2023-03-06T11:49:24.020Z,7.26
2023-03-06T11:52:01.425Z,7.18
2023-03-06T11:54:29.606Z,7.17
2023-03-06T11:57:02.677Z,7.09
2023-03-06T11:59:51.730Z,7.05
2023-03-06T12:02:57.041Z,7.10
2023-03-06T12:06:06.647Z,7.08
2023-03-06T12:08:52.446Z,7.10
2023-03-06T12:11:38.868Z,6.88
2023-03-06T12:14:31.929Z,6.89
2023-03-06T12:17:21.963Z,6.90
2023-03-06T12:20:04.587Z,6.85
2023-03-06T12:22:53.278Z,6.77
2023-03-06T12:25:34.268Z,6.83
2023-03-06T12:28:41.419Z,6.68
2023-03-06T12:31:20.701Z,6.68
2023-03-06T12:34:25.910Z,6.70
2023-03-06T12:37:02.686Z,6.72
2023-03-06T12:40:10.239Z,6.58
2023-03-06T12:43:33.104Z,6.63
2023-03-06T12:46:16.821Z,6.60
2023-03-06T12:48:52.243Z,6.58
2023-03-06T12:51:21.656Z,6.52
2023-03-06T12:53:51.343Z,6.43
2023-03-06T12:56:21.387Z,6.34
2023-03-06T12:58:57.752Z,6.42
2023-03-06T13:01:41.916Z,6.58
2023-03-06T13:04:23.065Z,6.48
2023-03-06T13:07:11.641Z,6.51
2023-03-06T13:10:06.976Z,6.33
2023-03-06T13:12:57.683Z,6.57
2023-03-06T13:15:46.049Z,6.55
2023-03-06T13:18:23.210Z,6.43
2023-03-06T13:20:58.079Z,6.50
2023-03-06T13:23:37.278Z,6.46
2023-03-06T13:26:28.713Z,6.46
2023-03-06T13:28:58.639Z,6.30
2023-03-06T13:31:34.259Z,6.36
2023-03-06T13:34:04.272Z,6.46
2023-03-06T13:36:39.096Z,6.30
2023-03-06T13:39:12.122Z,6.31
2023-03-06T13:41:57.872Z,6.18
2023-03-06T13:44:28.979Z,6.33
2023-03-06T13:47:00.158Z,6.31
2023-03-06T13:49:30.346Z,6.17
2023-03-06T13:52:03.643Z,6.18
2023-03-06T13:54:50.728Z,6.11
2023-03-06T13:57:52.309Z,6.12
2023-03-06T14:00:46.128Z,6.10
2023-03-06T14:03:29.153Z,6.12
2023-03-06T14:05:57.028Z,5.96
2023-03-06T14:08:28.198Z,5.90
2023-03-06T14:11:15.812Z,5.95
2023-03-06T14:13:50.003Z,5.74
2023-03-06T14:16:25.872Z,5.83
2023-03-06T14:18:56.543Z,5.86
2023-03-06T14:21:31.246Z,5.99
2023-03-06T14:24:01.159Z,5.86
2023-03-06T14:26:34.288Z,5.57
2023-03-06T14:29:03.360Z,5.57
2023-03-06T14:31:37.914Z,5.48
2023-03-06T14:34:15.871Z,5.35
2023-03-06T14:36:46.303Z,5.47
2023-03-06T14:39:20.713Z,5.31
2023-03-06T14:41:48.270Z,5.21
2023-03-06T14:44:22.346Z,5.27
2023-03-06T14:46:52.476Z,5.15
2023-03-06T14:49:22.137Z,5.01
2023-03-06T14:52:00.958Z,4.94
2023-03-06T14:54:34.725Z,4.89
2023-03-06T14:57:08.771Z,4.83
2023-03-06T14:59:45.363Z,4.84
2023-03-06T15:02:21.602Z,4.84
2023-03-06T15:04:54.029Z,4.73
2023-03-06T15:07:32.905Z,4.57
2023-03-06T15:10:01.508Z,4.56
2023-03-06T15:12:30.209Z,4.52
2023-03-06T15:15:04.399Z,4.47
2023-03-06T15:17:40.216Z,4.31
2023-03-06T15:20:28.861Z,4.36
2023-03-06T15:22:56.517Z,4.20
2023-03-06T15:25:30.551Z,4.15
2023-03-06T15:27:57.973Z,4.15
2023-03-06T15:30:27.706Z,4.09
2023-03-06T15:33:19.991Z,3.92
2023-03-06T15:35:58.306Z,3.83
2023-03-06T15:38:42.166Z,3.69
2023-03-06T15:41:21.833Z,3.77
2023-03-06T15:43:49.871Z,3.64
2023-03-06T15:46:17.461Z,3.51
2023-03-06T15:49:03.282Z,3.55
2023-03-06T15:51:32.398Z,3.57
2023-03-06T15:54:11.392Z,3.50
2023-03-06T15:56:42.115Z,3.48
2023-03-06T15:59:19.689Z,3.41
2023-03-06T16:01:47.672Z,3.37
2023-03-06T16:04:17.420Z,3.42
2023-03-06T16:06:46.097Z,3.43
2023-03-06T16:09:14.635Z,3.45
2023-03-06T16:11:47.593Z,3.34
2023-03-06T16:14:24.052Z,3.29
2023-03-06T16:16:54.402Z,3.18
2023-03-06T16:19:27.588Z,3.03
2023-03-06T16:21:56.848Z,3.05
2023-03-06T16:24:26.489Z,3.05
2023-03-06T16:26:55.277Z,2.97
2023-03-06T16:29:26.338Z,2.89
2023-03-06T16:31:55.593Z,2.95
2023-03-06T16:34:23.913Z,2.81
2023-03-06T16:36:51.828Z,2.77
2023-03-06T16:39:23.057Z,2.84
2023-03-06T16:41:50.906Z,2.87
2023-03-06T16:44:18.823Z,2.76
2023-03-06T16:46:48.411Z,2.89
2023-03-06T16:49:21.989Z,2.83
2023-03-06T16:51:50.196Z,2.80
2023-03-06T16:54:18.235Z,2.78
2023-03-06T16:56:46.012Z,2.73
2023-03-06T16:59:13.734Z,2.85
2023-03-06T17:01:45.003Z,2.64
2023-03-06T17:04:13.067Z,2.65
2023-03-06T17:06:42.072Z,2.61
2023-03-06T17:09:11.268Z,2.65
2023-03-06T17:11:39.068Z,2.56
2023-03-06T17:14:07.204Z,2.66
2023-03-06T17:16:36.901Z,2.55
2023-03-06T17:19:04.623Z,2.58
2023-03-06T17:21:32.139Z,2.53
2023-03-06T17:24:01.997Z,2.40
2023-03-06T17:26:29.813Z,2.43
2023-03-06T17:28:57.501Z,2.41
2023-03-06T17:31:29.062Z,2.23
2023-03-06T17:34:00.833Z,2.27
2023-03-06T17:36:29.639Z,2.26
2023-03-06T17:39:02.270Z,2.23
2023-03-06T17:41:30.249Z,2.22
2023-03-06T17:43:58.604Z,2.25
2023-03-06T17:46:26.543Z,2.21
2023-03-06T17:48:55.164Z,2.18
2023-03-06T17:51:22.709Z,2.21
2023-03-06T17:53:52.470Z,2.30
2023-03-06T17:56:20.146Z,2.16
2023-03-06T17:58:47.997Z,2.25
2023-03-06T18:01:19.116Z,2.10
2023-03-06T18:03:49.086Z,2.18
2023-03-06T18:06:18.108Z,2.06
2023-03-06T18:08:46.373Z,2.02
2023-03-06T18:11:14.650Z,2.04
2023-03-06T18:13:44.375Z,1.99
2023-03-06T18:16:14.360Z,2.08
2023-03-06T18:18:41.943Z,1.94
2023-03-06T18:21:12.004Z,1.85
2023-03-06T18:23:40.698Z,1.85
2023-03-06T18:26:12.003Z,1.81
2023-03-06T18:28:42.694Z,1.90
2023-03-06T18:31:17.217Z,1.87
2023-03-06T18:33:45.714Z,1.86
2023-03-06T18:36:13.407Z,1.79
2023-03-06T18:38:43.231Z,1.68
2023-03-06T18:41:11.959Z,1.65
2023-03-06T18:43:40.105Z,1.75
2023-03-06T18:46:08.058Z,1.58
2023-03-06T18:48:36.314Z,1.64
2023-03-06T18:51:09.465Z,1.51
2023-03-06T18:53:37.291Z,1.63
2023-03-06T18:56:08.382Z,1.58
2023-03-06T18:58:35.801Z,1.58
2023-03-06T19:01:09.204Z,1.57
2023-03-06T19:03:36.827Z,1.63
2023-03-06T19:06:09.359Z,1.58
2023-03-06T19:08:38.809Z,1.54
2023-03-06T19:11:12.634Z,1.59
2023-03-06T19:13:40.134Z,1.49
2023-03-06T19:16:08.146Z,1.65
2023-03-06T19:18:36.048Z,1.53
2023-03-06T19:21:20.852Z,1.55
2023-03-06T19:23:48.893Z,1.68
2023-03-06T19:26:18.911Z,1.66
2023-03-06T19:28:47.063Z,1.72
2023-03-06T19:31:20.809Z,1.59
2023-03-06T19:33:49.697Z,1.58
2023-03-06T19:36:18.729Z,1.60
2023-03-06T19:38:50.582Z,1.63
2023-03-06T19:41:18.153Z,1.61
2023-03-06T19:43:52.446Z,1.62
2023-03-06T19:46:21.293Z,1.61
2023-03-06T19:48:49.137Z,1.58
2023-03-06T19:51:16.704Z,1.61
2023-03-06T19:53:44.364Z,1.59
2023-03-06T19:56:21.732Z,1.58
2023-03-06T19:58:49.301Z,1.73
2023-03-06T20:01:19.638Z,1.74
2023-03-06T20:03:47.469Z,1.71
2023-03-06T20:06:18.788Z,1.82
2023-03-06T20:08:47.701Z,1.74
2023-03-06T20:11:19.859Z,1.81
2023-03-06T20:13:47.977Z,1.82
2023-03-06T20:16:17.160Z,1.83
2023-03-06T20:18:45.888Z,1.87
2023-03-06T20:21:13.916Z,1.85
2023-03-06T20:23:41.975Z,1.83
2023-03-06T20:26:12.269Z,1.80
2023-03-06T20:28:41.679Z,1.86
2023-03-06T20:31:18.894Z,1.82
2023-03-06T20:33:48.790Z,1.77
2023-03-06T20:36:19.687Z,1.84
2023-03-06T20:38:47.720Z,1.82
2023-03-06T20:41:23.122Z,1.78
2023-03-06T20:43:50.901Z,1.80
2023-03-06T20:46:19.870Z,1.81
2023-03-06T20:48:52.697Z,1.84
2023-03-06T20:51:32.589Z,1.77
2023-03-06T20:54:01.811Z,1.79
2023-03-06T20:56:32.415Z,1.83
2023-03-06T20:59:00.017Z,1.93
2023-03-06T21:01:29.825Z,1.79
2023-03-06T21:03:58.385Z,1.87
2023-03-06T21:06:28.464Z,1.80
2023-03-06T21:09:00.344Z,1.89
2023-03-06T21:11:28.422Z,1.84
2023-03-06T21:13:57.054Z,1.79
2023-03-06T21:16:26.595Z,1.83
2023-03-06T21:18:55.960Z,1.90
2023-03-06T21:21:25.924Z,1.83
2023-03-06T21:23:53.709Z,1.87
2023-03-06T21:26:23.715Z,1.86
2023-03-06T21:28:51.913Z,1.84
2023-03-06T21:31:21.385Z,1.56
2023-03-06T21:33:50.249Z,1.44
2023-03-06T21:36:19.415Z,1.43
2023-03-06T21:38:48.400Z,1.33
2023-03-06T21:41:20.982Z,1.38
2023-03-06T21:43:48.484Z,1.34
2023-03-06T21:46:16.422Z,1.32
2023-03-06T21:48:44.118Z,1.52
2023-03-06T21:51:16.065Z,1.56
2023-03-06T21:53:44.367Z,1.48
2023-03-06T21:56:13.391Z,1.29
2023-03-06T21:58:41.158Z,1.23
2023-03-06T22:01:13.658Z,1.12
2023-03-06T22:03:41.140Z,1.04
2023-03-06T22:06:17.972Z,1.25
2023-03-06T22:08:46.353Z,1.20
2023-03-06T22:11:16.133Z,1.11
2023-03-06T22:13:44.476Z,0.85
2023-03-06T22:16:12.749Z,0.82
2023-03-06T22:18:44.015Z,0.85
2023-03-06T22:21:13.702Z,0.92
2023-03-06T22:23:41.656Z,0.85
2023-03-06T22:26:12.959Z,1.14
2023-03-06T22:28:40.883Z,1.24
2023-03-06T22:31:16.997Z,1.36
2023-03-06T22:33:45.258Z,1.35
2023-03-06T22:36:15.338Z,1.29
2023-03-06T22:38:46.989Z,1.34
2023-03-06T22:41:17.066Z,1.33
2023-03-06T22:43:44.713Z,1.42
2023-03-06T22:46:14.757Z,1.33
2023-03-06T22:48:42.780Z,1.36
2023-03-06T22:51:16.521Z,1.34
2023-03-06T22:53:44.781Z,1.36
2023-03-06T22:56:14.941Z,1.41
2023-03-06T22:58:45.063Z,1.25
2023-03-06T23:01:19.017Z,1.35
2023-03-06T23:03:49.253Z,1.33
2023-03-06T23:06:20.207Z,1.30
2023-03-06T23:08:54.177Z,1.30
2023-03-06T23:11:22.773Z,1.27
2023-03-06T23:14:12.355Z,1.36
2023-03-06T23:16:58.472Z,1.33
2023-03-06T23:19:44.446Z,1.34
2023-03-06T23:22:31.354Z,1.27
2023-03-06T23:25:17.300Z,1.27
2023-03-06T23:27:44.962Z,1.20
2023-03-06T23:30:13.144Z,1.32
2023-03-06T23:32:40.801Z,1.25
2023-03-06T23:35:08.673Z,1.22
2023-03-06T23:37:36.333Z,1.33
2023-03-06T23:40:05.413Z,1.35
2023-03-06T23:42:33.136Z,1.41
2023-03-06T23:45:00.839Z,1.38
2023-03-06T23:47:32.391Z,1.44
2023-03-06T23:50:00.155Z,1.42
2023-03-06T23:52:27.800Z,1.32
2023-03-06T23:54:55.566Z,1.30
2023-03-06T23:57:23.134Z,1.36
2023-03-06T23:59:50.843Z,1.43
